sensor_id;sensor_type;location;lat;lon;timestamp;temperature;humidity
73955;DHT22;62306;52.516;13.290;2024-01-06T00:00:11;2.20;99.90
73955;DHT22;62306;52.516;13.290;2024-01-06T00:02:39;2.20;99.90
73955;DHT22;62306;52.516;13.290;2024-01-06T00:05:07;2.20;99.90
73955;DHT22;62306;52.516;13.290;2024-01-06T00:07:34;2.20;99.90
73955;DHT22;62306;52.516;13.290;2024-01-06T00:10:00;2.20;99.90
73955;DHT22;62306;52.516;13.290;2024-01-06T00:12:27;2.10;99.90
73955;DHT22;62306;52.516;13.290;2024-01-06T00:14:54;2.20;99.90
73955;DHT22;62306;52.516;13.290;2024-01-06T00:17:21;2.20;99.90
73955;DHT22;62306;52.516;13.290;2024-01-06T00:19:49;2.30;99.90
73955;DHT22;62306;52.516;13.290;2024-01-06T00:22:17;2.30;99.90
73955;DHT22;62306;52.516;13.290;2024-01-06T00:24:44;2.30;99.90
73955;DHT22;62306;52.516;13.290;2024-01-06T00:27:11;2.30;99.90
73955;DHT22;62306;52.516;13.290;2024-01-06T00:29:39;2.20;99.90
73955;DHT22;62306;52.516;13.290;2024-01-06T00:32:06;2.20;99.90
73955;DHT22;62306;52.516;13.290;2024-01-06T00:34:33;2.10;99.90
73955;DHT22;62306;52.516;13.290;2024-01-06T00:37:01;2.10;99.90
73955;DHT22;62306;52.516;13.290;2024-01-06T00:39:28;2.10;99.90
73955;DHT22;62306;52.516;13.290;2024-01-06T00:41:54;2.10;99.90
73955;DHT22;62306;52.516;13.290;2024-01-06T00:44:21;2.20;99.90
73955;DHT22;62306;52.516;13.290;2024-01-06T00:46:48;2.00;99.90
73955;DHT22;62306;52.516;13.290;2024-01-06T00:49:15;2.10;99.90
73955;DHT22;62306;52.516;13.290;2024-01-06T00:51:42;2.00;99.90
73955;DHT22;62306;52.516;13.290;2024-01-06T00:54:10;2.10;99.90
73955;DHT22;62306;52.516;13.290;2024-01-06T00:56:37;2.10;99.90
73955;DHT22;62306;52.516;13.290;2024-01-06T00:59:04;2.20;99.90
73955;DHT22;62306;52.516;13.290;2024-01-06T01:01:31;2.20;99.90
73955;DHT22;62306;52.516;13.290;2024-01-06T01:03:58;2.20;99.90
73955;DHT22;62306;52.516;13.290;2024-01-06T01:06:25;2.20;99.90
73955;DHT22;62306;52.516;13.290;2024-01-06T01:08:52;2.20;99.90
73955;DHT22;62306;52.516;13.290;2024-01-06T01:11:21;2.20;99.90
73955;DHT22;62306;52.516;13.290;2024-01-06T01:13:47;2.20;99.90
73955;DHT22;62306;52.516;13.290;2024-01-06T01:16:14;2.20;99.90
73955;DHT22;62306;52.516;13.290;2024-01-06T01:18:41;2.20;99.90
73955;DHT22;62306;52.516;13.290;2024-01-06T01:21:08;2.20;99.90
73955;DHT22;62306;52.516;13.290;2024-01-06T01:23:35;2.10;99.90
73955;DHT22;62306;52.516;13.290;2024-01-06T01:26:02;2.10;99.90
73955;DHT22;62306;52.516;13.290;2024-01-06T01:28:30;2.20;99.90
73955;DHT22;62306;52.516;13.290;2024-01-06T01:30:57;2.20;99.90
73955;DHT22;62306;52.516;13.290;2024-01-06T01:33:25;2.10;99.90
73955;DHT22;62306;52.516;13.290;2024-01-06T01:35:52;2.10;99.90
73955;DHT22;62306;52.516;13.290;2024-01-06T01:38:18;2.00;99.90
73955;DHT22;62306;52.516;13.290;2024-01-06T01:40:45;2.00;99.90
73955;DHT22;62306;52.516;13.290;2024-01-06T01:43:18;2.00;99.90
73955;DHT22;62306;52.516;13.290;2024-01-06T01:45:48;2.00;99.90
73955;DHT22;62306;52.516;13.290;2024-01-06T01:48:15;2.40;99.90
73955;DHT22;62306;52.516;13.290;2024-01-06T01:50:42;2.00;99.90
73955;DHT22;62306;52.516;13.290;2024-01-06T01:53:10;2.00;99.90
73955;DHT22;62306;52.516;13.290;2024-01-06T01:55:37;2.00;99.90
73955;DHT22;62306;52.516;13.290;2024-01-06T01:58:04;2.00;99.90
73955;DHT22;62306;52.516;13.290;2024-01-06T02:00:31;1.90;99.90
73955;DHT22;62306;52.516;13.290;2024-01-06T02:03:01;2.00;99.90
73955;DHT22;62306;52.516;13.290;2024-01-06T02:05:29;2.00;99.90
73955;DHT22;62306;52.516;13.290;2024-01-06T02:07:56;2.00;99.90
73955;DHT22;62306;52.516;13.290;2024-01-06T02:10:23;2.30;99.90
73955;DHT22;62306;52.516;13.290;2024-01-06T02:12:49;2.00;99.90
73955;DHT22;62306;52.516;13.290;2024-01-06T02:15:17;2.00;99.90
73955;DHT22;62306;52.516;13.290;2024-01-06T02:17:44;1.90;99.90
73955;DHT22;62306;52.516;13.290;2024-01-06T02:20:13;1.90;99.90
73955;DHT22;62306;52.516;13.290;2024-01-06T02:22:42;1.90;99.90
73955;DHT22;62306;52.516;13.290;2024-01-06T02:25:09;1.90;99.90
73955;DHT22;62306;52.516;13.290;2024-01-06T02:27:38;1.90;99.90
73955;DHT22;62306;52.516;13.290;2024-01-06T02:30:06;1.90;99.90
73955;DHT22;62306;52.516;13.290;2024-01-06T02:32:33;1.90;99.90
73955;DHT22;62306;52.516;13.290;2024-01-06T02:35:00;1.80;99.90
73955;DHT22;62306;52.516;13.290;2024-01-06T02:37:27;1.90;99.90
73955;DHT22;62306;52.516;13.290;2024-01-06T02:39:55;1.80;99.90
73955;DHT22;62306;52.516;13.290;2024-01-06T02:42:22;1.80;99.90
73955;DHT22;62306;52.516;13.290;2024-01-06T02:44:49;1.80;99.90
73955;DHT22;62306;52.516;13.290;2024-01-06T02:47:16;1.70;99.90
73955;DHT22;62306;52.516;13.290;2024-01-06T02:49:43;1.80;99.90
73955;DHT22;62306;52.516;13.290;2024-01-06T02:52:10;1.80;99.90
73955;DHT22;62306;52.516;13.290;2024-01-06T02:54:37;1.80;99.90
73955;DHT22;62306;52.516;13.290;2024-01-06T02:57:05;1.90;99.90
73955;DHT22;62306;52.516;13.290;2024-01-06T02:59:32;1.90;99.90
73955;DHT22;62306;52.516;13.290;2024-01-06T03:02:01;1.90;99.90
73955;DHT22;62306;52.516;13.290;2024-01-06T03:04:27;1.90;99.90
73955;DHT22;62306;52.516;13.290;2024-01-06T03:06:54;1.90;99.90
73955;DHT22;62306;52.516;13.290;2024-01-06T03:09:21;1.90;99.90
73955;DHT22;62306;52.516;13.290;2024-01-06T03:11:48;1.90;99.90
73955;DHT22;62306;52.516;13.290;2024-01-06T03:14:16;1.90;99.90
73955;DHT22;62306;52.516;13.290;2024-01-06T03:16:43;1.90;99.90
73955;DHT22;62306;52.516;13.290;2024-01-06T03:19:10;1.90;99.90
73955;DHT22;62306;52.516;13.290;2024-01-06T03:21:37;1.90;99.90
73955;DHT22;62306;52.516;13.290;2024-01-06T03:24:04;1.90;99.90
73955;DHT22;62306;52.516;13.290;2024-01-06T03:26:31;1.90;99.90
73955;DHT22;62306;52.516;13.290;2024-01-06T03:28:58;1.90;99.90
73955;DHT22;62306;52.516;13.290;2024-01-06T03:31:29;1.90;99.90
73955;DHT22;62306;52.516;13.290;2024-01-06T03:33:56;1.90;99.90
73955;DHT22;62306;52.516;13.290;2024-01-06T03:36:22;1.90;99.90
73955;DHT22;62306;52.516;13.290;2024-01-06T03:38:48;1.90;99.90
73955;DHT22;62306;52.516;13.290;2024-01-06T03:41:15;1.90;99.90
73955;DHT22;62306;52.516;13.290;2024-01-06T03:43:42;1.90;99.90
73955;DHT22;62306;52.516;13.290;2024-01-06T03:46:09;1.90;99.90
73955;DHT22;62306;52.516;13.290;2024-01-06T03:48:37;1.90;99.90
73955;DHT22;62306;52.516;13.290;2024-01-06T03:51:04;1.90;99.90
73955;DHT22;62306;52.516;13.290;2024-01-06T03:53:31;1.90;99.90
73955;DHT22;62306;52.516;13.290;2024-01-06T03:55:57;1.90;99.90
73955;DHT22;62306;52.516;13.290;2024-01-06T03:58:24;2.00;99.90
73955;DHT22;62306;52.516;13.290;2024-01-06T04:00:51;1.90;99.90
73955;DHT22;62306;52.516;13.290;2024-01-06T04:03:18;1.90;99.90
73955;DHT22;62306;52.516;13.290;2024-01-06T04:05:46;1.90;99.90
73955;DHT22;62306;52.516;13.290;2024-01-06T04:08:13;1.80;99.90
73955;DHT22;62306;52.516;13.290;2024-01-06T04:10:40;1.80;99.90
73955;DHT22;62306;52.516;13.290;2024-01-06T04:13:08;1.70;99.90
73955;DHT22;62306;52.516;13.290;2024-01-06T04:15:35;1.70;99.90
73955;DHT22;62306;52.516;13.290;2024-01-06T04:18:03;1.80;99.90
73955;DHT22;62306;52.516;13.290;2024-01-06T04:20:30;1.80;99.90
73955;DHT22;62306;52.516;13.290;2024-01-06T04:22:58;1.80;99.90
73955;DHT22;62306;52.516;13.290;2024-01-06T04:25:25;1.90;99.90
73955;DHT22;62306;52.516;13.290;2024-01-06T04:27:52;1.90;99.90
73955;DHT22;62306;52.516;13.290;2024-01-06T04:30:19;1.90;99.90
73955;DHT22;62306;52.516;13.290;2024-01-06T04:32:46;1.90;99.90
73955;DHT22;62306;52.516;13.290;2024-01-06T04:35:14;1.90;99.90
73955;DHT22;62306;52.516;13.290;2024-01-06T04:37:41;1.90;99.90
73955;DHT22;62306;52.516;13.290;2024-01-06T04:40:10;1.90;99.90
73955;DHT22;62306;52.516;13.290;2024-01-06T04:42:37;1.90;99.90
73955;DHT22;62306;52.516;13.290;2024-01-06T04:45:05;1.80;99.90
73955;DHT22;62306;52.516;13.290;2024-01-06T04:47:32;2.90;99.90
73955;DHT22;62306;52.516;13.290;2024-01-06T04:49:59;1.90;99.90
73955;DHT22;62306;52.516;13.290;2024-01-06T04:52:25;1.90;99.90
73955;DHT22;62306;52.516;13.290;2024-01-06T04:54:53;1.90;99.90
73955;DHT22;62306;52.516;13.290;2024-01-06T04:57:21;1.90;99.90
73955;DHT22;62306;52.516;13.290;2024-01-06T04:59:48;1.90;99.90
73955;DHT22;62306;52.516;13.290;2024-01-06T05:02:15;1.80;99.90
73955;DHT22;62306;52.516;13.290;2024-01-06T05:04:42;1.80;99.90
73955;DHT22;62306;52.516;13.290;2024-01-06T05:07:09;1.70;99.90
73955;DHT22;62306;52.516;13.290;2024-01-06T05:09:36;1.70;99.90
73955;DHT22;62306;52.516;13.290;2024-01-06T05:12:03;1.70;99.90
73955;DHT22;62306;52.516;13.290;2024-01-06T05:14:31;1.70;99.90
73955;DHT22;62306;52.516;13.290;2024-01-06T05:16:58;1.60;99.90
73955;DHT22;62306;52.516;13.290;2024-01-06T05:19:25;1.60;99.90
73955;DHT22;62306;52.516;13.290;2024-01-06T05:21:52;1.70;99.90
73955;DHT22;62306;52.516;13.290;2024-01-06T05:24:19;1.60;99.90
73955;DHT22;62306;52.516;13.290;2024-01-06T05:26:45;1.60;99.90
73955;DHT22;62306;52.516;13.290;2024-01-06T05:29:12;1.60;99.90
73955;DHT22;62306;52.516;13.290;2024-01-06T05:31:40;1.60;99.90
73955;DHT22;62306;52.516;13.290;2024-01-06T05:34:07;1.60;99.90
73955;DHT22;62306;52.516;13.290;2024-01-06T05:36:34;1.70;99.90
73955;DHT22;62306;52.516;13.290;2024-01-06T05:39:01;1.70;99.90
73955;DHT22;62306;52.516;13.290;2024-01-06T05:41:28;1.70;99.90
73955;DHT22;62306;52.516;13.290;2024-01-06T05:43:55;1.60;99.90
73955;DHT22;62306;52.516;13.290;2024-01-06T05:46:22;1.70;99.90
73955;DHT22;62306;52.516;13.290;2024-01-06T05:48:50;1.60;99.90
73955;DHT22;62306;52.516;13.290;2024-01-06T05:51:17;1.60;99.90
73955;DHT22;62306;52.516;13.290;2024-01-06T05:53:44;1.60;99.90
73955;DHT22;62306;52.516;13.290;2024-01-06T05:56:10;1.60;99.90
73955;DHT22;62306;52.516;13.290;2024-01-06T05:58:38;1.60;99.90
73955;DHT22;62306;52.516;13.290;2024-01-06T06:01:04;1.60;99.90
73955;DHT22;62306;52.516;13.290;2024-01-06T06:03:32;1.50;99.90
73955;DHT22;62306;52.516;13.290;2024-01-06T06:06:00;1.50;99.90
73955;DHT22;62306;52.516;13.290;2024-01-06T06:08:28;1.50;99.90
73955;DHT22;62306;52.516;13.290;2024-01-06T06:10:55;1.50;99.90
73955;DHT22;62306;52.516;13.290;2024-01-06T06:13:27;1.50;99.90
73955;DHT22;62306;52.516;13.290;2024-01-06T06:15:54;1.50;99.90
73955;DHT22;62306;52.516;13.290;2024-01-06T06:18:21;1.50;99.90
73955;DHT22;62306;52.516;13.290;2024-01-06T06:20:48;1.40;99.90
73955;DHT22;62306;52.516;13.290;2024-01-06T06:23:16;1.40;99.90
73955;DHT22;62306;52.516;13.290;2024-01-06T06:25:43;1.30;99.90
73955;DHT22;62306;52.516;13.290;2024-01-06T06:28:10;1.30;99.90
73955;DHT22;62306;52.516;13.290;2024-01-06T06:30:37;1.30;99.90
73955;DHT22;62306;52.516;13.290;2024-01-06T06:33:04;1.30;99.90
73955;DHT22;62306;52.516;13.290;2024-01-06T06:35:31;1.40;99.90
73955;DHT22;62306;52.516;13.290;2024-01-06T06:37:57;1.40;99.90
73955;DHT22;62306;52.516;13.290;2024-01-06T06:40:26;1.60;99.90
73955;DHT22;62306;52.516;13.290;2024-01-06T06:42:53;1.30;99.90
73955;DHT22;62306;52.516;13.290;2024-01-06T06:45:19;1.20;99.90
73955;DHT22;62306;52.516;13.290;2024-01-06T06:47:48;1.20;99.90
73955;DHT22;62306;52.516;13.290;2024-01-06T06:50:16;1.20;99.90
73955;DHT22;62306;52.516;13.290;2024-01-06T06:52:42;1.10;99.90
73955;DHT22;62306;52.516;13.290;2024-01-06T06:55:09;1.10;99.90
73955;DHT22;62306;52.516;13.290;2024-01-06T06:57:38;1.20;99.90
73955;DHT22;62306;52.516;13.290;2024-01-06T07:00:06;1.20;99.90
73955;DHT22;62306;52.516;13.290;2024-01-06T07:02:34;1.10;99.90
73955;DHT22;62306;52.516;13.290;2024-01-06T07:05:00;1.20;99.90
73955;DHT22;62306;52.516;13.290;2024-01-06T07:07:28;1.20;99.90
73955;DHT22;62306;52.516;13.290;2024-01-06T07:09:55;1.20;99.90
73955;DHT22;62306;52.516;13.290;2024-01-06T07:12:22;1.10;99.90
73955;DHT22;62306;52.516;13.290;2024-01-06T07:14:50;1.20;99.90
73955;DHT22;62306;52.516;13.290;2024-01-06T07:17:17;1.20;99.90
73955;DHT22;62306;52.516;13.290;2024-01-06T07:19:44;1.20;99.90
73955;DHT22;62306;52.516;13.290;2024-01-06T07:22:11;1.20;99.90
73955;DHT22;62306;52.516;13.290;2024-01-06T07:24:38;1.10;99.90
73955;DHT22;62306;52.516;13.290;2024-01-06T07:27:05;1.20;99.90
73955;DHT22;62306;52.516;13.290;2024-01-06T07:29:31;1.20;99.90
73955;DHT22;62306;52.516;13.290;2024-01-06T07:32:00;1.10;99.90
73955;DHT22;62306;52.516;13.290;2024-01-06T07:34:26;1.10;99.90
73955;DHT22;62306;52.516;13.290;2024-01-06T07:36:53;1.10;99.90
73955;DHT22;62306;52.516;13.290;2024-01-06T07:39:20;1.10;99.90
73955;DHT22;62306;52.516;13.290;2024-01-06T07:41:47;1.10;99.90
73955;DHT22;62306;52.516;13.290;2024-01-06T07:44:14;1.00;99.90
73955;DHT22;62306;52.516;13.290;2024-01-06T07:46:41;1.00;99.90
73955;DHT22;62306;52.516;13.290;2024-01-06T07:49:09;0.90;99.90
73955;DHT22;62306;52.516;13.290;2024-01-06T07:51:36;0.90;99.90
73955;DHT22;62306;52.516;13.290;2024-01-06T07:54:03;0.80;99.90
73955;DHT22;62306;52.516;13.290;2024-01-06T07:56:31;0.80;99.90
73955;DHT22;62306;52.516;13.290;2024-01-06T07:58:58;0.80;99.90
73955;DHT22;62306;52.516;13.290;2024-01-06T08:01:25;0.90;99.90
73955;DHT22;62306;52.516;13.290;2024-01-06T08:03:52;1.00;99.90
73955;DHT22;62306;52.516;13.290;2024-01-06T08:06:20;0.90;99.90
73955;DHT22;62306;52.516;13.290;2024-01-06T08:08:47;0.80;99.90
73955;DHT22;62306;52.516;13.290;2024-01-06T08:11:14;0.80;99.90
73955;DHT22;62306;52.516;13.290;2024-01-06T08:13:41;0.80;99.90
73955;DHT22;62306;52.516;13.290;2024-01-06T08:16:08;0.90;99.90
73955;DHT22;62306;52.516;13.290;2024-01-06T08:18:35;0.90;99.90
73955;DHT22;62306;52.516;13.290;2024-01-06T08:21:02;0.90;99.90
73955;DHT22;62306;52.516;13.290;2024-01-06T08:23:30;1.00;99.90
73955;DHT22;62306;52.516;13.290;2024-01-06T08:25:57;0.90;99.90
73955;DHT22;62306;52.516;13.290;2024-01-06T08:28:24;0.90;99.90
73955;DHT22;62306;52.516;13.290;2024-01-06T08:30:51;0.80;99.90
73955;DHT22;62306;52.516;13.290;2024-01-06T08:33:18;0.80;99.90
73955;DHT22;62306;52.516;13.290;2024-01-06T08:35:45;0.80;99.90
73955;DHT22;62306;52.516;13.290;2024-01-06T08:38:12;0.90;99.90
73955;DHT22;62306;52.516;13.290;2024-01-06T08:40:40;0.80;99.90
73955;DHT22;62306;52.516;13.290;2024-01-06T08:43:07;0.80;99.90
73955;DHT22;62306;52.516;13.290;2024-01-06T08:45:35;0.90;99.90
73955;DHT22;62306;52.516;13.290;2024-01-06T08:48:01;1.00;99.90
73955;DHT22;62306;52.516;13.290;2024-01-06T08:50:28;1.10;99.90
73955;DHT22;62306;52.516;13.290;2024-01-06T08:52:55;1.00;99.90
73955;DHT22;62306;52.516;13.290;2024-01-06T08:55:22;1.00;99.90
73955;DHT22;62306;52.516;13.290;2024-01-06T08:57:50;1.00;99.90
73955;DHT22;62306;52.516;13.290;2024-01-06T09:00:17;1.00;99.90
73955;DHT22;62306;52.516;13.290;2024-01-06T09:02:44;1.00;99.90
73955;DHT22;62306;52.516;13.290;2024-01-06T09:05:11;0.80;99.90
73955;DHT22;62306;52.516;13.290;2024-01-06T09:07:38;0.70;99.90
73955;DHT22;62306;52.516;13.290;2024-01-06T09:10:06;0.70;99.90
73955;DHT22;62306;52.516;13.290;2024-01-06T09:12:33;0.80;99.90
73955;DHT22;62306;52.516;13.290;2024-01-06T09:15:01;0.80;99.90
73955;DHT22;62306;52.516;13.290;2024-01-06T09:17:28;0.80;99.90
73955;DHT22;62306;52.516;13.290;2024-01-06T09:19:55;0.80;99.90
73955;DHT22;62306;52.516;13.290;2024-01-06T09:22:21;0.80;99.90
73955;DHT22;62306;52.516;13.290;2024-01-06T09:24:49;0.80;99.90
73955;DHT22;62306;52.516;13.290;2024-01-06T09:27:16;0.80;99.90
73955;DHT22;62306;52.516;13.290;2024-01-06T09:29:43;0.80;99.90
73955;DHT22;62306;52.516;13.290;2024-01-06T09:32:11;0.90;99.90
73955;DHT22;62306;52.516;13.290;2024-01-06T09:34:38;0.90;99.90
73955;DHT22;62306;52.516;13.290;2024-01-06T09:37:05;0.90;99.90
73955;DHT22;62306;52.516;13.290;2024-01-06T09:39:32;0.90;99.90
73955;DHT22;62306;52.516;13.290;2024-01-06T09:41:59;0.90;99.90
73955;DHT22;62306;52.516;13.290;2024-01-06T09:44:27;0.90;99.90
73955;DHT22;62306;52.516;13.290;2024-01-06T09:46:56;0.90;99.90
73955;DHT22;62306;52.516;13.290;2024-01-06T09:49:28;0.70;99.90
73955;DHT22;62306;52.516;13.290;2024-01-06T09:51:58;0.70;99.90
73955;DHT22;62306;52.516;13.290;2024-01-06T09:54:25;0.70;99.90
73955;DHT22;62306;52.516;13.290;2024-01-06T09:56:59;1.30;99.90
73955;DHT22;62306;52.516;13.290;2024-01-06T09:59:27;0.70;99.90
73955;DHT22;62306;52.516;13.290;2024-01-06T10:01:57;0.80;99.90
73955;DHT22;62306;52.516;13.290;2024-01-06T10:04:25;0.80;99.90
73955;DHT22;62306;52.516;13.290;2024-01-06T10:06:52;0.80;99.90
73955;DHT22;62306;52.516;13.290;2024-01-06T10:09:26;0.80;99.90
73955;DHT22;62306;52.516;13.290;2024-01-06T10:11:55;0.90;99.90
73955;DHT22;62306;52.516;13.290;2024-01-06T10:14:23;0.90;99.90
73955;DHT22;62306;52.516;13.290;2024-01-06T10:16:50;0.90;99.90
73955;DHT22;62306;52.516;13.290;2024-01-06T10:19:17;1.00;99.90
73955;DHT22;62306;52.516;13.290;2024-01-06T10:21:45;1.00;99.90
73955;DHT22;62306;52.516;13.290;2024-01-06T10:24:12;1.00;99.90
73955;DHT22;62306;52.516;13.290;2024-01-06T10:26:39;0.90;99.90
73955;DHT22;62306;52.516;13.290;2024-01-06T10:29:06;0.90;99.90
73955;DHT22;62306;52.516;13.290;2024-01-06T10:31:33;0.90;99.90
73955;DHT22;62306;52.516;13.290;2024-01-06T10:34:00;0.80;99.90
73955;DHT22;62306;52.516;13.290;2024-01-06T10:36:28;0.70;99.90
73955;DHT22;62306;52.516;13.290;2024-01-06T10:38:58;0.60;99.90
73955;DHT22;62306;52.516;13.290;2024-01-06T10:41:27;0.60;99.90
73955;DHT22;62306;52.516;13.290;2024-01-06T10:43:55;0.50;99.90
73955;DHT22;62306;52.516;13.290;2024-01-06T10:46:27;0.50;99.90
73955;DHT22;62306;52.516;13.290;2024-01-06T10:48:55;0.50;99.90
73955;DHT22;62306;52.516;13.290;2024-01-06T10:51:25;0.50;99.90
73955;DHT22;62306;52.516;13.290;2024-01-06T10:53:53;0.60;99.90
73955;DHT22;62306;52.516;13.290;2024-01-06T10:56:23;0.60;99.90
73955;DHT22;62306;52.516;13.290;2024-01-06T10:58:53;0.60;99.90
73955;DHT22;62306;52.516;13.290;2024-01-06T11:01:22;0.60;99.90
73955;DHT22;62306;52.516;13.290;2024-01-06T11:03:50;0.50;99.90
73955;DHT22;62306;52.516;13.290;2024-01-06T11:06:17;0.60;99.90
73955;DHT22;62306;52.516;13.290;2024-01-06T11:08:50;0.60;99.90
73955;DHT22;62306;52.516;13.290;2024-01-06T11:11:20;0.60;99.90
73955;DHT22;62306;52.516;13.290;2024-01-06T11:13:49;0.60;99.90
73955;DHT22;62306;52.516;13.290;2024-01-06T11:16:33;0.50;99.90
73955;DHT22;62306;52.516;13.290;2024-01-06T11:19:00;0.50;99.90
73955;DHT22;62306;52.516;13.290;2024-01-06T11:21:27;0.60;99.90
73955;DHT22;62306;52.516;13.290;2024-01-06T11:24:15;0.60;99.90
73955;DHT22;62306;52.516;13.290;2024-01-06T11:26:50;0.60;99.90
73955;DHT22;62306;52.516;13.290;2024-01-06T11:29:18;0.70;99.90
73955;DHT22;62306;52.516;13.290;2024-01-06T11:32:16;0.60;99.90
73955;DHT22;62306;52.516;13.290;2024-01-06T11:34:47;0.60;99.90
73955;DHT22;62306;52.516;13.290;2024-01-06T11:37:19;0.60;99.90
73955;DHT22;62306;52.516;13.290;2024-01-06T11:39:46;0.60;99.90
73955;DHT22;62306;52.516;13.290;2024-01-06T11:42:14;0.50;99.90
73955;DHT22;62306;52.516;13.290;2024-01-06T11:44:44;0.50;99.90
73955;DHT22;62306;52.516;13.290;2024-01-06T11:47:12;0.50;99.90
73955;DHT22;62306;52.516;13.290;2024-01-06T11:49:44;0.50;99.90
73955;DHT22;62306;52.516;13.290;2024-01-06T11:52:12;0.50;99.90
73955;DHT22;62306;52.516;13.290;2024-01-06T11:54:39;0.60;99.90
73955;DHT22;62306;52.516;13.290;2024-01-06T11:57:07;0.60;99.90
73955;DHT22;62306;52.516;13.290;2024-01-06T11:59:36;0.60;99.90
73955;DHT22;62306;52.516;13.290;2024-01-06T12:02:03;0.60;99.90
73955;DHT22;62306;52.516;13.290;2024-01-06T12:04:31;0.60;99.90
73955;DHT22;62306;52.516;13.290;2024-01-06T12:07:05;1.70;99.90
73955;DHT22;62306;52.516;13.290;2024-01-06T12:09:32;0.50;99.90
73955;DHT22;62306;52.516;13.290;2024-01-06T12:12:03;0.50;99.90
73955;DHT22;62306;52.516;13.290;2024-01-06T12:14:31;0.50;99.90
73955;DHT22;62306;52.516;13.290;2024-01-06T12:16:59;0.40;99.90
73955;DHT22;62306;52.516;13.290;2024-01-06T12:19:29;0.50;99.90
73955;DHT22;62306;52.516;13.290;2024-01-06T12:21:56;0.50;99.90
73955;DHT22;62306;52.516;13.290;2024-01-06T12:24:23;0.50;99.90
73955;DHT22;62306;52.516;13.290;2024-01-06T12:26:50;0.50;99.90
73955;DHT22;62306;52.516;13.290;2024-01-06T12:29:17;0.60;99.90
73955;DHT22;62306;52.516;13.290;2024-01-06T12:31:45;0.60;99.90
73955;DHT22;62306;52.516;13.290;2024-01-06T12:34:14;0.50;99.90
73955;DHT22;62306;52.516;13.290;2024-01-06T12:36:41;0.20;99.90
73955;DHT22;62306;52.516;13.290;2024-01-06T12:39:11;0.30;99.90
73955;DHT22;62306;52.516;13.290;2024-01-06T12:41:39;0.30;99.90
73955;DHT22;62306;52.516;13.290;2024-01-06T12:44:07;0.30;99.90
73955;DHT22;62306;52.516;13.290;2024-01-06T12:46:35;0.30;99.90
73955;DHT22;62306;52.516;13.290;2024-01-06T12:49:02;0.40;99.90
73955;DHT22;62306;52.516;13.290;2024-01-06T12:51:30;0.40;99.90
73955;DHT22;62306;52.516;13.290;2024-01-06T12:53:57;0.50;99.90
73955;DHT22;62306;52.516;13.290;2024-01-06T12:56:24;0.50;99.90
73955;DHT22;62306;52.516;13.290;2024-01-06T12:58:51;0.50;99.90
73955;DHT22;62306;52.516;13.290;2024-01-06T13:01:18;0.50;99.90
73955;DHT22;62306;52.516;13.290;2024-01-06T13:03:45;0.40;99.90
73955;DHT22;62306;52.516;13.290;2024-01-06T13:06:12;0.50;99.90
73955;DHT22;62306;52.516;13.290;2024-01-06T13:08:41;0.50;99.90
73955;DHT22;62306;52.516;13.290;2024-01-06T13:11:08;0.50;99.90
73955;DHT22;62306;52.516;13.290;2024-01-06T13:13:35;0.50;99.90
73955;DHT22;62306;52.516;13.290;2024-01-06T13:16:03;0.40;99.90
73955;DHT22;62306;52.516;13.290;2024-01-06T13:18:30;0.40;99.90
73955;DHT22;62306;52.516;13.290;2024-01-06T13:20:57;0.30;99.90
73955;DHT22;62306;52.516;13.290;2024-01-06T13:23:24;0.30;99.90
73955;DHT22;62306;52.516;13.290;2024-01-06T13:25:52;0.20;99.90
73955;DHT22;62306;52.516;13.290;2024-01-06T13:28:19;0.20;99.90
73955;DHT22;62306;52.516;13.290;2024-01-06T13:30:46;0.20;99.90
73955;DHT22;62306;52.516;13.290;2024-01-06T13:33:13;0.30;99.90
73955;DHT22;62306;52.516;13.290;2024-01-06T13:35:40;0.40;99.90
73955;DHT22;62306;52.516;13.290;2024-01-06T13:38:07;0.50;99.90
73955;DHT22;62306;52.516;13.290;2024-01-06T13:40:34;0.40;99.90
73955;DHT22;62306;52.516;13.290;2024-01-06T13:43:03;0.40;99.90
73955;DHT22;62306;52.516;13.290;2024-01-06T13:45:30;0.30;99.90
73955;DHT22;62306;52.516;13.290;2024-01-06T13:47:57;0.30;99.90
73955;DHT22;62306;52.516;13.290;2024-01-06T13:50:24;0.30;99.90
73955;DHT22;62306;52.516;13.290;2024-01-06T13:52:51;0.30;99.90
73955;DHT22;62306;52.516;13.290;2024-01-06T13:55:18;0.30;99.90
73955;DHT22;62306;52.516;13.290;2024-01-06T13:57:45;0.30;99.90
73955;DHT22;62306;52.516;13.290;2024-01-06T14:00:14;0.30;99.90
73955;DHT22;62306;52.516;13.290;2024-01-06T14:02:44;0.30;99.90
73955;DHT22;62306;52.516;13.290;2024-01-06T14:05:12;0.40;99.90
73955;DHT22;62306;52.516;13.290;2024-01-06T14:07:39;0.40;99.90
73955;DHT22;62306;52.516;13.290;2024-01-06T14:10:11;0.40;99.90
73955;DHT22;62306;52.516;13.290;2024-01-06T14:12:38;0.40;99.90
73955;DHT22;62306;52.516;13.290;2024-01-06T14:15:07;0.40;99.90
73955;DHT22;62306;52.516;13.290;2024-01-06T14:17:35;0.40;99.90
73955;DHT22;62306;52.516;13.290;2024-01-06T14:20:03;0.30;99.90
73955;DHT22;62306;52.516;13.290;2024-01-06T14:22:30;0.30;99.90
73955;DHT22;62306;52.516;13.290;2024-01-06T14:24:57;0.40;99.90
73955;DHT22;62306;52.516;13.290;2024-01-06T14:27:24;0.40;99.90
73955;DHT22;62306;52.516;13.290;2024-01-06T14:29:51;0.40;99.90
73955;DHT22;62306;52.516;13.290;2024-01-06T14:32:21;0.30;99.90
73955;DHT22;62306;52.516;13.290;2024-01-06T14:34:50;0.40;99.90
73955;DHT22;62306;52.516;13.290;2024-01-06T14:37:17;0.30;99.90
73955;DHT22;62306;52.516;13.290;2024-01-06T14:39:44;0.30;99.90
73955;DHT22;62306;52.516;13.290;2024-01-06T14:42:11;0.30;99.90
73955;DHT22;62306;52.516;13.290;2024-01-06T14:44:37;0.30;99.90
73955;DHT22;62306;52.516;13.290;2024-01-06T14:47:05;0.30;99.90
73955;DHT22;62306;52.516;13.290;2024-01-06T14:49:33;0.30;99.90
73955;DHT22;62306;52.516;13.290;2024-01-06T14:52:01;0.30;99.90
73955;DHT22;62306;52.516;13.290;2024-01-06T14:54:28;0.30;99.90
73955;DHT22;62306;52.516;13.290;2024-01-06T14:56:56;0.40;99.90
73955;DHT22;62306;52.516;13.290;2024-01-06T14:59:23;0.40;99.90
73955;DHT22;62306;52.516;13.290;2024-01-06T15:01:50;0.40;99.90
73955;DHT22;62306;52.516;13.290;2024-01-06T15:04:17;0.40;99.90
73955;DHT22;62306;52.516;13.290;2024-01-06T15:06:45;0.40;99.90
73955;DHT22;62306;52.516;13.290;2024-01-06T15:09:14;0.40;99.90
73955;DHT22;62306;52.516;13.290;2024-01-06T15:11:41;0.40;99.90
73955;DHT22;62306;52.516;13.290;2024-01-06T15:14:07;0.40;99.90
73955;DHT22;62306;52.516;13.290;2024-01-06T15:16:34;0.40;99.90
73955;DHT22;62306;52.516;13.290;2024-01-06T15:19:02;0.40;99.90
73955;DHT22;62306;52.516;13.290;2024-01-06T15:21:29;0.40;99.90
73955;DHT22;62306;52.516;13.290;2024-01-06T15:23:59;0.40;99.90
73955;DHT22;62306;52.516;13.290;2024-01-06T15:26:27;0.40;99.90
73955;DHT22;62306;52.516;13.290;2024-01-06T15:28:55;0.30;99.90
73955;DHT22;62306;52.516;13.290;2024-01-06T15:31:26;0.30;99.90